ECP45K EBLG-LGSK
Flight info
| Callsign | ECP45K |
|---|---|
| Flight time | 2h 42m |
| Altitude | 37000 |
| Route | LNO DCT NONKO DCT VIBOM DCT NOMBO DCT RIDAR DCT RADIZ DCT NEMEK DCT ETOBI DCT OSLUD DCT MEDUX UM867 KOGAT DCT ERANA UL737 TSL TSL1C |
| Aircraft | A320/M-SDE3FGHIRWY/LB1 |
Departure
| Time | 2026-05-07 07:45 |
|---|---|
| Airport | Liège Airport (EBLG) |
Arrival
| Time | 2026-05-07 10:28 |
|---|---|
| Airport | Skiathos Island National Airport (LGSK) |
| Time | Latitude | Longitude | Altitude | Speed | Heading |
|---|---|---|---|---|---|
| 2026-05-07 07:29 | 50.64378 | 5.45949 | 603 ft | 0 kts | 135° |
| 2026-05-07 07:36 | 50.64379 | 5.45947 | 603 ft | 1 kts | 136° |
| 2026-05-07 07:36 | 50.64389 | 5.45929 | 602 ft | 2 kts | 134° |
| 2026-05-07 07:37 | 50.64399 | 5.45913 | 601 ft | 2 kts | 135° |
| 2026-05-07 07:37 | 50.64407 | 5.45901 | 601 ft | 0 kts | 134° |
| 2026-05-07 07:37 | 50.64416 | 5.45884 | 600 ft | 2 kts | 106° |
| 2026-05-07 07:37 | 50.64417 | 5.45860 | 599 ft | 2 kts | 77° |
| 2026-05-07 07:38 | 50.64411 | 5.45840 | 599 ft | 0 kts | 49° |
| 2026-05-07 07:38 | 50.64407 | 5.45833 | 599 ft | 1 kts | 42° |
| 2026-05-07 07:38 | 50.64405 | 5.45830 | 599 ft | 0 kts | 44° |
| 2026-05-07 07:42 | 50.64421 | 5.45856 | 599 ft | 8 kts | 47° |
| 2026-05-07 07:42 | 50.64480 | 5.45951 | 601 ft | 13 kts | 46° |
| 2026-05-07 07:42 | 50.64540 | 5.46049 | 603 ft | 11 kts | 43° |
| 2026-05-07 07:42 | 50.64596 | 5.46134 | 604 ft | 12 kts | 45° |
| 2026-05-07 07:43 | 50.64681 | 5.46270 | 606 ft | 17 kts | 45° |
| 2026-05-07 07:43 | 50.64763 | 5.46400 | 608 ft | 15 kts | 45° |
| 2026-05-07 07:43 | 50.64836 | 5.46518 | 609 ft | 14 kts | 44° |
| 2026-05-07 07:43 | 50.64885 | 5.46590 | 609 ft | 8 kts | 43° |
| 2026-05-07 07:44 | 50.64948 | 5.46610 | 607 ft | 12 kts | 337° |
| 2026-05-07 07:44 | 50.65013 | 5.46520 | 599 ft | 14 kts | 312° |
| 2026-05-07 07:44 | 50.64973 | 5.46368 | 595 ft | 27 kts | 223° |
| 2026-05-07 07:44 | 50.64659 | 5.45868 | 594 ft | 99 kts | 224° |
| 2026-05-07 07:45 | 50.64020 | 5.44854 | 592 ft | 158 kts | 225° |
| 2026-05-07 07:45 | 50.63185 | 5.43546 | 988 ft | 173 kts | 225° |
| 2026-05-07 07:45 | 50.62341 | 5.42232 | 1659 ft | 174 kts | 226° |
| 2026-05-07 07:45 | 50.61497 | 5.40887 | 2332 ft | 176 kts | 226° |
| 2026-05-07 07:46 | 50.60610 | 5.39462 | 2832 ft | 190 kts | 226° |
| 2026-05-07 07:46 | 50.59648 | 5.37894 | 3292 ft | 207 kts | 230° |
| 2026-05-07 07:46 | 50.59020 | 5.35832 | 3723 ft | 220 kts | 265° |
| 2026-05-07 07:46 | 50.59294 | 5.33434 | 4129 ft | 234 kts | 298° |
| 2026-05-07 07:47 | 50.60095 | 5.31184 | 4927 ft | 237 kts | 302° |
| 2026-05-07 07:47 | 50.60891 | 5.28977 | 5776 ft | 237 kts | 301° |
| 2026-05-07 07:47 | 50.61688 | 5.26706 | 6577 ft | 239 kts | 300° |
| 2026-05-07 07:47 | 50.62472 | 5.24417 | 7365 ft | 242 kts | 299° |
| 2026-05-07 07:48 | 50.63269 | 5.22068 | 8153 ft | 244 kts | 299° |
| 2026-05-07 07:48 | 50.64079 | 5.19752 | 8926 ft | 246 kts | 301° |
| 2026-05-07 07:48 | 50.64937 | 5.17421 | 9670 ft | 249 kts | 301° |
| 2026-05-07 07:48 | 50.65801 | 5.15087 | 10410 ft | 251 kts | 301° |
| 2026-05-07 07:49 | 50.66666 | 5.12689 | 11157 ft | 253 kts | 295° |
| 2026-05-07 07:49 | 50.67014 | 5.09998 | 11825 ft | 258 kts | 264° |
| 2026-05-07 07:49 | 50.66433 | 5.07390 | 12501 ft | 262 kts | 235° |
| 2026-05-07 07:49 | 50.65137 | 5.05370 | 13179 ft | 265 kts | 220° |
| 2026-05-07 07:50 | 50.63715 | 5.03520 | 13840 ft | 268 kts | 220° |
| 2026-05-07 07:50 | 50.62138 | 5.01980 | 14443 ft | 273 kts | 198° |
| 2026-05-07 07:50 | 50.60263 | 5.01739 | 15054 ft | 278 kts | 170° |
| 2026-05-07 07:50 | 50.58460 | 5.02921 | 15454 ft | 292 kts | 142° |
| 2026-05-07 07:51 | 50.57041 | 5.05303 | 15757 ft | 306 kts | 129° |
| 2026-05-07 07:51 | 50.55672 | 5.07967 | 16046 ft | 322 kts | 129° |
| 2026-05-07 07:51 | 50.54233 | 5.10719 | 16314 ft | 336 kts | 130° |
| 2026-05-07 07:51 | 50.52710 | 5.13570 | 16696 ft | 346 kts | 130° |
| 2026-05-07 07:52 | 50.51141 | 5.16469 | 17275 ft | 350 kts | 130° |
| 2026-05-07 07:52 | 50.49557 | 5.19379 | 17871 ft | 352 kts | 130° |
| 2026-05-07 07:52 | 50.48040 | 5.22349 | 18419 ft | 355 kts | 121° |
| 2026-05-07 07:52 | 50.47187 | 5.25996 | 18921 ft | 358 kts | 96° |
| 2026-05-07 07:53 | 50.47329 | 5.29846 | 19443 ft | 359 kts | 73° |
| 2026-05-07 07:53 | 50.48241 | 5.33468 | 19985 ft | 360 kts | 65° |
| 2026-05-07 07:53 | 50.49272 | 5.37045 | 20485 ft | 363 kts | 64° |
| 2026-05-07 07:53 | 50.50298 | 5.40651 | 20972 ft | 367 kts | 65° |
| 2026-05-07 07:54 | 50.51328 | 5.44333 | 21475 ft | 369 kts | 65° |
| 2026-05-07 07:54 | 50.52355 | 5.48057 | 21969 ft | 372 kts | 65° |
| 2026-05-07 07:54 | 50.53373 | 5.51789 | 22433 ft | 375 kts | 66° |
| 2026-05-07 07:54 | 50.54391 | 5.55535 | 22897 ft | 378 kts | 66° |
| 2026-05-07 07:55 | 50.55421 | 5.59340 | 23358 ft | 381 kts | 66° |
| 2026-05-07 07:55 | 50.56459 | 5.63177 | 23816 ft | 384 kts | 66° |
| 2026-05-07 07:55 | 50.57479 | 5.67051 | 24258 ft | 386 kts | 71° |
| 2026-05-07 07:55 | 50.57939 | 5.71277 | 24648 ft | 390 kts | 92° |
| 2026-05-07 07:56 | 50.57449 | 5.75410 | 25081 ft | 392 kts | 111° |
| 2026-05-07 07:56 | 50.56370 | 5.79340 | 25557 ft | 393 kts | 114° |
| 2026-05-07 07:56 | 50.55242 | 5.83244 | 25955 ft | 396 kts | 114° |
| 2026-05-07 07:56 | 50.54100 | 5.87210 | 26361 ft | 398 kts | 114° |
| 2026-05-07 07:57 | 50.52956 | 5.91217 | 26776 ft | 400 kts | 114° |
| 2026-05-07 07:57 | 50.51826 | 5.95202 | 27179 ft | 401 kts | 114° |
| 2026-05-07 07:57 | 50.50696 | 5.99196 | 27569 ft | 403 kts | 114° |
| 2026-05-07 07:57 | 50.49553 | 6.03240 | 27936 ft | 405 kts | 113° |
| 2026-05-07 07:58 | 50.48403 | 6.07309 | 28288 ft | 408 kts | 113° |
| 2026-05-07 07:58 | 50.47266 | 6.11329 | 28627 ft | 410 kts | 113° |
| 2026-05-07 07:58 | 50.46101 | 6.15446 | 28965 ft | 412 kts | 113° |
| 2026-05-07 07:58 | 50.44943 | 6.19528 | 29293 ft | 414 kts | 113° |
| 2026-05-07 07:59 | 50.43774 | 6.23648 | 29632 ft | 416 kts | 113° |
| 2026-05-07 07:59 | 50.42593 | 6.27800 | 29967 ft | 417 kts | 113° |
| 2026-05-07 07:59 | 50.41416 | 6.31931 | 30300 ft | 418 kts | 113° |
| 2026-05-07 07:59 | 50.40234 | 6.36075 | 30620 ft | 419 kts | 113° |
| 2026-05-07 08:00 | 50.39042 | 6.40242 | 30929 ft | 421 kts | 113° |
| 2026-05-07 08:00 | 50.37844 | 6.44431 | 31205 ft | 422 kts | 113° |
| 2026-05-07 08:00 | 50.36654 | 6.48579 | 31447 ft | 424 kts | 113° |
| 2026-05-07 08:00 | 50.35451 | 6.52770 | 31682 ft | 426 kts | 113° |
| 2026-05-07 08:01 | 50.34230 | 6.57010 | 31904 ft | 428 kts | 113° |
| 2026-05-07 08:01 | 50.33005 | 6.61257 | 32117 ft | 429 kts | 113° |
| 2026-05-07 08:01 | 50.31784 | 6.65486 | 32323 ft | 431 kts | 114° |
| 2026-05-07 08:01 | 50.30549 | 6.69754 | 32531 ft | 433 kts | 114° |
| 2026-05-07 08:02 | 50.29294 | 6.74084 | 32744 ft | 435 kts | 114° |
| 2026-05-07 08:02 | 50.28049 | 6.78371 | 32941 ft | 436 kts | 114° |
| 2026-05-07 08:02 | 50.26805 | 6.82646 | 33094 ft | 438 kts | 114° |
| 2026-05-07 08:02 | 50.25542 | 6.86979 | 33248 ft | 439 kts | 114° |
| 2026-05-07 08:03 | 50.24273 | 6.91328 | 33395 ft | 441 kts | 114° |
| 2026-05-07 08:03 | 50.23009 | 6.95646 | 33545 ft | 442 kts | 114° |
| 2026-05-07 08:03 | 50.21745 | 6.99960 | 33697 ft | 443 kts | 114° |
| 2026-05-07 08:03 | 50.20461 | 7.04332 | 33860 ft | 443 kts | 114° |
| 2026-05-07 08:04 | 50.19173 | 7.08710 | 34037 ft | 443 kts | 114° |
| 2026-05-07 08:04 | 50.17894 | 7.13052 | 34202 ft | 443 kts | 114° |
| 2026-05-07 08:04 | 50.16615 | 7.17387 | 34362 ft | 443 kts | 114° |
| 2026-05-07 08:04 | 50.15344 | 7.21685 | 34524 ft | 443 kts | 114° |
| 2026-05-07 08:05 | 50.14056 | 7.26034 | 34681 ft | 443 kts | 114° |
| 2026-05-07 08:05 | 50.12769 | 7.30372 | 34826 ft | 443 kts | 114° |
| 2026-05-07 08:05 | 50.11471 | 7.34737 | 34989 ft | 443 kts | 115° |
| 2026-05-07 08:05 | 50.10164 | 7.39129 | 35132 ft | 443 kts | 115° |
| 2026-05-07 08:06 | 50.08870 | 7.43465 | 35266 ft | 444 kts | 115° |
| 2026-05-07 08:06 | 50.07579 | 7.47784 | 35382 ft | 445 kts | 115° |
| 2026-05-07 08:06 | 50.06285 | 7.52107 | 35503 ft | 445 kts | 115° |
| 2026-05-07 08:06 | 50.04963 | 7.56513 | 35607 ft | 446 kts | 115° |
| 2026-05-07 08:07 | 50.03667 | 7.60825 | 35716 ft | 447 kts | 115° |
| 2026-05-07 08:07 | 50.02346 | 7.65213 | 35830 ft | 447 kts | 116° |
| 2026-05-07 08:07 | 50.01037 | 7.69555 | 35933 ft | 447 kts | 116° |
| 2026-05-07 08:07 | 49.99708 | 7.73951 | 36044 ft | 447 kts | 116° |
| 2026-05-07 08:08 | 49.98394 | 7.78297 | 36129 ft | 448 kts | 116° |
| 2026-05-07 08:08 | 49.95745 | 7.87026 | 36288 ft | 450 kts | 116° |
| 2026-05-07 08:09 | 49.93081 | 7.95774 | 36455 ft | 451 kts | 116° |
| 2026-05-07 08:09 | 49.90399 | 8.04549 | 36621 ft | 452 kts | 116° |
| 2026-05-07 08:10 | 49.87718 | 8.13293 | 36751 ft | 453 kts | 116° |
| 2026-05-07 08:10 | 49.85011 | 8.22094 | 36894 ft | 454 kts | 116° |
| 2026-05-07 08:11 | 49.82293 | 8.30896 | 36987 ft | 456 kts | 116° |
| 2026-05-07 08:11 | 49.79438 | 8.39657 | 36985 ft | 456 kts | 121° |
| 2026-05-07 08:12 | 49.76073 | 8.47887 | 36992 ft | 455 kts | 124° |
| 2026-05-07 08:12 | 49.72574 | 8.55988 | 36992 ft | 455 kts | 124° |
| 2026-05-07 08:13 | 49.69058 | 8.64114 | 36989 ft | 455 kts | 124° |
| 2026-05-07 08:13 | 49.65559 | 8.72188 | 36991 ft | 455 kts | 125° |
| 2026-05-07 08:14 | 49.62035 | 8.80296 | 36986 ft | 456 kts | 125° |
| 2026-05-07 08:14 | 49.58524 | 8.88355 | 36989 ft | 456 kts | 126° |
| 2026-05-07 08:15 | 49.54994 | 8.96428 | 36983 ft | 456 kts | 126° |
| 2026-05-07 08:15 | 49.51464 | 9.04483 | 36979 ft | 456 kts | 126° |
| 2026-05-07 08:16 | 49.47915 | 9.12552 | 36977 ft | 456 kts | 126° |
| 2026-05-07 08:16 | 49.44412 | 9.20617 | 36977 ft | 456 kts | 124° |
| 2026-05-07 08:17 | 49.40953 | 9.28769 | 36979 ft | 456 kts | 124° |
| 2026-05-07 08:17 | 49.37490 | 9.36900 | 36983 ft | 457 kts | 124° |
| 2026-05-07 08:18 | 49.34031 | 9.44986 | 36983 ft | 457 kts | 124° |
| 2026-05-07 08:18 | 49.30550 | 9.53094 | 36986 ft | 457 kts | 124° |
| 2026-05-07 08:19 | 49.27055 | 9.61210 | 36985 ft | 457 kts | 125° |
| 2026-05-07 08:19 | 49.23552 | 9.69321 | 36982 ft | 457 kts | 126° |
| 2026-05-07 08:20 | 49.20074 | 9.77350 | 36987 ft | 457 kts | 126° |
| 2026-05-07 08:20 | 49.16563 | 9.85432 | 36989 ft | 457 kts | 126° |
| 2026-05-07 08:21 | 49.13053 | 9.93490 | 36987 ft | 457 kts | 126° |
| 2026-05-07 08:21 | 49.09547 | 10.01505 | 36977 ft | 457 kts | 126° |
| 2026-05-07 08:22 | 49.05752 | 10.09253 | 36983 ft | 455 kts | 132° |
| 2026-05-07 08:22 | 49.01463 | 10.16225 | 36978 ft | 454 kts | 137° |
| 2026-05-07 08:23 | 48.97023 | 10.22954 | 36973 ft | 454 kts | 137° |
| 2026-05-07 08:23 | 48.92570 | 10.29701 | 36971 ft | 453 kts | 137° |
| 2026-05-07 08:24 | 48.88105 | 10.36446 | 36983 ft | 453 kts | 137° |
| 2026-05-07 08:24 | 48.83651 | 10.43162 | 36979 ft | 453 kts | 137° |
| 2026-05-07 08:25 | 48.79186 | 10.49875 | 36980 ft | 453 kts | 137° |
| 2026-05-07 08:25 | 48.74724 | 10.56569 | 36985 ft | 453 kts | 137° |
| 2026-05-07 08:26 | 48.67996 | 10.66632 | 36990 ft | 453 kts | 139° |
| 2026-05-07 08:26 | 48.63528 | 10.73293 | 37005 ft | 453 kts | 139° |
| 2026-05-07 08:27 | 48.59108 | 10.80008 | 37008 ft | 454 kts | 136° |
| 2026-05-07 08:27 | 48.55040 | 10.87286 | 37014 ft | 455 kts | 132° |
| 2026-05-07 08:28 | 48.51072 | 10.94652 | 37014 ft | 455 kts | 132° |
| 2026-05-07 08:28 | 48.47094 | 11.02022 | 37015 ft | 454 kts | 132° |
| 2026-05-07 08:29 | 48.43106 | 11.09384 | 37020 ft | 455 kts | 133° |
| 2026-05-07 08:29 | 48.39125 | 11.16713 | 37020 ft | 455 kts | 133° |
| 2026-05-07 08:30 | 48.35121 | 11.24064 | 37019 ft | 455 kts | 133° |
| 2026-05-07 08:30 | 48.31135 | 11.31363 | 37014 ft | 455 kts | 133° |
| 2026-05-07 08:31 | 48.27135 | 11.38669 | 37015 ft | 454 kts | 133° |
| 2026-05-07 08:31 | 48.23130 | 11.45963 | 37014 ft | 454 kts | 133° |
| 2026-05-07 08:32 | 48.19135 | 11.53219 | 37014 ft | 453 kts | 133° |
| 2026-05-07 08:32 | 48.15127 | 11.60480 | 37015 ft | 453 kts | 133° |
| 2026-05-07 08:33 | 48.11096 | 11.67762 | 37013 ft | 452 kts | 134° |
| 2026-05-07 08:33 | 48.07095 | 11.74971 | 37014 ft | 452 kts | 134° |
| 2026-05-07 08:34 | 48.03100 | 11.82148 | 37015 ft | 453 kts | 134° |
| 2026-05-07 08:34 | 47.99082 | 11.89353 | 37017 ft | 452 kts | 134° |
| 2026-05-07 08:35 | 47.95081 | 11.96503 | 37018 ft | 452 kts | 134° |
| 2026-05-07 08:35 | 47.91056 | 12.03679 | 37015 ft | 450 kts | 134° |
| 2026-05-07 08:36 | 47.87039 | 12.10824 | 37019 ft | 450 kts | 135° |
| 2026-05-07 08:36 | 47.83035 | 12.17924 | 37013 ft | 450 kts | 135° |
| 2026-05-07 08:37 | 47.79024 | 12.25016 | 37005 ft | 450 kts | 134° |
| 2026-05-07 08:37 | 47.75025 | 12.32076 | 37004 ft | 449 kts | 135° |
| 2026-05-07 08:38 | 47.70995 | 12.39172 | 37000 ft | 449 kts | 135° |
| 2026-05-07 08:38 | 47.66995 | 12.46192 | 37011 ft | 449 kts | 135° |
| 2026-05-07 08:39 | 47.62915 | 12.53216 | 37020 ft | 447 kts | 137° |
| 2026-05-07 08:39 | 47.58530 | 12.59634 | 37030 ft | 445 kts | 141° |
| 2026-05-07 08:40 | 47.54086 | 12.65912 | 37027 ft | 444 kts | 141° |
| 2026-05-07 08:40 | 47.49621 | 12.72216 | 37028 ft | 444 kts | 142° |
| 2026-05-07 08:41 | 47.45178 | 12.78469 | 37034 ft | 443 kts | 142° |
| 2026-05-07 08:41 | 47.40730 | 12.84721 | 37028 ft | 441 kts | 142° |
| 2026-05-07 08:42 | 47.36281 | 12.90957 | 37026 ft | 441 kts | 142° |
| 2026-05-07 08:42 | 47.31856 | 12.97143 | 37039 ft | 441 kts | 142° |
| 2026-05-07 08:43 | 47.29606 | 13.00283 | 36856 ft | 441 kts | 142° |
| 2026-05-07 08:43 | 47.27389 | 13.03373 | 36952 ft | 442 kts | 142° |
| 2026-05-07 08:43 | 47.22939 | 13.09563 | 37119 ft | 442 kts | 142° |
| 2026-05-07 08:44 | 47.18487 | 13.15745 | 37035 ft | 441 kts | 142° |
| 2026-05-07 08:44 | 47.14054 | 13.21883 | 36994 ft | 441 kts | 142° |
| 2026-05-07 08:45 | 47.09620 | 13.28006 | 36980 ft | 440 kts | 142° |
| 2026-05-07 08:45 | 47.05161 | 13.34152 | 36973 ft | 440 kts | 142° |
| 2026-05-07 08:46 | 47.00730 | 13.40242 | 36971 ft | 439 kts | 142° |
| 2026-05-07 08:46 | 46.96286 | 13.46340 | 36963 ft | 439 kts | 142° |
| 2026-05-07 08:47 | 46.91834 | 13.52430 | 36783 ft | 439 kts | 142° |
| 2026-05-07 08:47 | 46.89610 | 13.55466 | 36895 ft | 439 kts | 142° |
| 2026-05-07 08:47 | 46.87357 | 13.58538 | 36943 ft | 441 kts | 142° |
| 2026-05-07 08:48 | 46.82896 | 13.64611 | 36988 ft | 442 kts | 142° |
| 2026-05-07 08:48 | 46.78373 | 13.70754 | 37008 ft | 442 kts | 143° |
| 2026-05-07 08:49 | 46.73885 | 13.76840 | 37008 ft | 442 kts | 143° |
| 2026-05-07 08:49 | 46.69384 | 13.82922 | 37024 ft | 442 kts | 143° |
| 2026-05-07 08:50 | 46.64887 | 13.88987 | 37015 ft | 442 kts | 143° |
| 2026-05-07 08:50 | 46.60372 | 13.95067 | 37012 ft | 441 kts | 143° |
| 2026-05-07 08:51 | 46.55848 | 14.01139 | 37020 ft | 442 kts | 143° |
| 2026-05-07 08:51 | 46.51353 | 14.07159 | 37023 ft | 443 kts | 143° |
| 2026-05-07 08:52 | 46.46889 | 14.13121 | 37021 ft | 443 kts | 143° |
| 2026-05-07 08:52 | 46.42338 | 14.19186 | 37024 ft | 443 kts | 143° |
| 2026-05-07 08:53 | 46.37831 | 14.25180 | 37018 ft | 442 kts | 143° |
| 2026-05-07 08:53 | 46.33292 | 14.31203 | 37021 ft | 442 kts | 143° |
| 2026-05-07 08:54 | 46.28772 | 14.37181 | 37018 ft | 442 kts | 143° |
| 2026-05-07 08:54 | 46.24242 | 14.43166 | 37018 ft | 442 kts | 143° |
| 2026-05-07 08:55 | 46.19744 | 14.49094 | 37013 ft | 441 kts | 143° |
| 2026-05-07 08:55 | 46.15200 | 14.55064 | 37009 ft | 442 kts | 143° |
| 2026-05-07 08:56 | 46.10674 | 14.60998 | 37025 ft | 442 kts | 143° |
| 2026-05-07 08:56 | 46.06089 | 14.66996 | 37015 ft | 442 kts | 144° |
| 2026-05-07 08:57 | 46.01568 | 14.72895 | 37021 ft | 441 kts | 144° |
| 2026-05-07 08:57 | 45.97012 | 14.78831 | 37015 ft | 442 kts | 144° |
| 2026-05-07 08:58 | 45.92467 | 14.84736 | 37019 ft | 442 kts | 144° |
| 2026-05-07 08:58 | 45.87923 | 14.90626 | 37025 ft | 442 kts | 144° |
| 2026-05-07 08:59 | 45.83358 | 14.96532 | 37032 ft | 442 kts | 144° |
| 2026-05-07 08:59 | 45.78832 | 15.02373 | 37033 ft | 441 kts | 144° |
| 2026-05-07 09:00 | 45.74281 | 15.08236 | 37023 ft | 440 kts | 144° |
| 2026-05-07 09:00 | 45.69749 | 15.14061 | 37024 ft | 440 kts | 144° |
| 2026-05-07 09:01 | 45.65184 | 15.19913 | 37029 ft | 441 kts | 144° |
| 2026-05-07 09:01 | 45.60655 | 15.25705 | 37035 ft | 441 kts | 144° |
| 2026-05-07 09:02 | 45.56256 | 15.31866 | 37041 ft | 446 kts | 138° |
| 2026-05-07 09:02 | 45.52220 | 15.38570 | 37027 ft | 448 kts | 136° |
| 2026-05-07 09:03 | 45.48205 | 15.45334 | 37032 ft | 447 kts | 136° |
| 2026-05-07 09:03 | 45.44188 | 15.52085 | 37034 ft | 447 kts | 136° |
| 2026-05-07 09:04 | 45.40168 | 15.58818 | 37024 ft | 447 kts | 136° |
| 2026-05-07 09:04 | 45.36165 | 15.65508 | 37019 ft | 447 kts | 137° |
| 2026-05-07 09:05 | 45.32152 | 15.72195 | 37021 ft | 447 kts | 137° |
| 2026-05-07 09:05 | 45.28115 | 15.78908 | 37022 ft | 446 kts | 137° |
| 2026-05-07 09:06 | 45.24112 | 15.85639 | 37023 ft | 449 kts | 135° |
| 2026-05-07 09:06 | 45.20174 | 15.92535 | 37026 ft | 449 kts | 135° |
| 2026-05-07 09:07 | 45.16238 | 15.99428 | 37027 ft | 449 kts | 135° |
| 2026-05-07 09:07 | 45.15130 | 16.01363 | 36525 ft | 448 kts | 135° |
| 2026-05-07 09:07 | 45.13165 | 16.04795 | 36815 ft | 444 kts | 135° |
| 2026-05-07 09:08 | 45.11237 | 16.08154 | 36937 ft | 445 kts | 135° |
| 2026-05-07 09:08 | 45.09266 | 16.11579 | 36987 ft | 447 kts | 135° |
| 2026-05-07 09:08 | 45.05323 | 16.18419 | 37249 ft | 451 kts | 135° |
| 2026-05-07 09:09 | 45.01337 | 16.25301 | 37407 ft | 459 kts | 134° |
| 2026-05-07 09:09 | 44.97300 | 16.32276 | 37185 ft | 460 kts | 134° |
| 2026-05-07 09:10 | 44.93285 | 16.39213 | 37064 ft | 452 kts | 134° |
| 2026-05-07 09:10 | 44.89354 | 16.45976 | 37046 ft | 447 kts | 134° |
| 2026-05-07 09:11 | 44.85400 | 16.52747 | 37045 ft | 446 kts | 134° |
| 2026-05-07 09:11 | 44.81484 | 16.59442 | 37061 ft | 446 kts | 134° |
| 2026-05-07 09:12 | 44.77531 | 16.66190 | 37066 ft | 446 kts | 135° |
| 2026-05-07 09:12 | 44.73587 | 16.72908 | 37064 ft | 446 kts | 135° |
| 2026-05-07 09:13 | 44.69637 | 16.79621 | 37063 ft | 446 kts | 135° |
| 2026-05-07 09:13 | 44.65696 | 16.86304 | 37063 ft | 447 kts | 135° |
| 2026-05-07 09:14 | 44.61720 | 16.93026 | 37040 ft | 447 kts | 135° |
| 2026-05-07 09:14 | 44.57774 | 16.99666 | 36956 ft | 446 kts | 135° |
| 2026-05-07 09:15 | 44.53784 | 17.06364 | 36793 ft | 447 kts | 135° |
| 2026-05-07 09:15 | 44.51802 | 17.09687 | 36649 ft | 447 kts | 135° |
| 2026-05-07 09:15 | 44.49814 | 17.13020 | 36441 ft | 447 kts | 135° |
| 2026-05-07 09:16 | 44.47840 | 17.16326 | 36243 ft | 447 kts | 135° |
| 2026-05-07 09:16 | 44.45835 | 17.19679 | 36122 ft | 447 kts | 135° |
| 2026-05-07 09:16 | 44.41869 | 17.26303 | 35961 ft | 448 kts | 135° |
| 2026-05-07 09:17 | 44.37880 | 17.32952 | 35955 ft | 448 kts | 135° |
| 2026-05-07 09:17 | 44.33880 | 17.39601 | 36072 ft | 447 kts | 135° |
| 2026-05-07 09:18 | 44.31887 | 17.42903 | 36195 ft | 447 kts | 135° |
| 2026-05-07 09:18 | 44.29887 | 17.46217 | 36338 ft | 446 kts | 135° |
| 2026-05-07 09:18 | 44.27877 | 17.49542 | 36485 ft | 445 kts | 135° |
| 2026-05-07 09:18 | 44.25885 | 17.52834 | 36617 ft | 445 kts | 135° |
| 2026-05-07 09:19 | 44.21895 | 17.59419 | 36774 ft | 446 kts | 135° |
| 2026-05-07 09:19 | 44.17906 | 17.65990 | 36854 ft | 446 kts | 135° |
| 2026-05-07 09:20 | 44.13900 | 17.72574 | 36954 ft | 446 kts | 135° |
| 2026-05-07 09:20 | 44.09882 | 17.79162 | 37084 ft | 446 kts | 135° |
| 2026-05-07 09:21 | 44.05871 | 17.85723 | 37124 ft | 446 kts | 135° |
| 2026-05-07 09:21 | 44.01867 | 17.92258 | 37128 ft | 446 kts | 135° |
| 2026-05-07 09:22 | 43.97848 | 17.98803 | 37121 ft | 446 kts | 135° |
| 2026-05-07 09:22 | 43.93841 | 18.05316 | 37112 ft | 446 kts | 135° |
| 2026-05-07 09:23 | 43.89816 | 18.11841 | 37115 ft | 446 kts | 135° |
| 2026-05-07 09:23 | 43.85778 | 18.18376 | 37123 ft | 446 kts | 135° |
| 2026-05-07 09:24 | 43.81756 | 18.24867 | 37113 ft | 446 kts | 135° |
| 2026-05-07 09:24 | 43.77713 | 18.31377 | 37015 ft | 446 kts | 135° |
| 2026-05-07 09:25 | 43.73667 | 18.37877 | 36886 ft | 446 kts | 135° |
| 2026-05-07 09:25 | 43.69652 | 18.44316 | 36855 ft | 446 kts | 135° |
| 2026-05-07 09:26 | 43.65601 | 18.50796 | 36872 ft | 446 kts | 135° |
| 2026-05-07 09:26 | 43.61551 | 18.57260 | 36975 ft | 446 kts | 135° |
| 2026-05-07 09:27 | 43.57499 | 18.63715 | 37083 ft | 446 kts | 135° |
| 2026-05-07 09:28 | 43.51433 | 18.73360 | 37120 ft | 445 kts | 136° |
| 2026-05-07 09:28 | 43.47371 | 18.79799 | 37119 ft | 445 kts | 136° |
| 2026-05-07 09:29 | 43.43305 | 18.86208 | 37123 ft | 445 kts | 136° |
| 2026-05-07 09:29 | 43.39234 | 18.92616 | 37131 ft | 445 kts | 136° |
| 2026-05-07 09:30 | 43.35179 | 18.98990 | 37126 ft | 445 kts | 136° |
| 2026-05-07 09:30 | 43.31102 | 19.05386 | 37120 ft | 445 kts | 136° |
| 2026-05-07 09:31 | 43.27021 | 19.11774 | 37128 ft | 445 kts | 136° |
| 2026-05-07 09:31 | 43.22967 | 19.18108 | 37081 ft | 445 kts | 136° |
| 2026-05-07 09:32 | 43.18863 | 19.24505 | 36982 ft | 446 kts | 136° |
| 2026-05-07 09:32 | 43.14801 | 19.30823 | 37078 ft | 446 kts | 136° |
| 2026-05-07 09:33 | 43.10693 | 19.37198 | 36846 ft | 446 kts | 136° |
| 2026-05-07 09:33 | 43.08649 | 19.40365 | 36600 ft | 446 kts | 136° |
| 2026-05-07 09:33 | 43.06597 | 19.43541 | 36319 ft | 447 kts | 136° |
| 2026-05-07 09:33 | 43.04540 | 19.46721 | 36164 ft | 446 kts | 136° |
| 2026-05-07 09:34 | 43.02487 | 19.49893 | 36198 ft | 446 kts | 136° |
| 2026-05-07 09:34 | 43.00440 | 19.53054 | 36378 ft | 443 kts | 136° |
| 2026-05-07 09:34 | 42.98432 | 19.56149 | 36520 ft | 442 kts | 136° |
| 2026-05-07 09:35 | 42.94338 | 19.62441 | 36579 ft | 445 kts | 136° |
| 2026-05-07 09:35 | 42.90219 | 19.68764 | 36442 ft | 446 kts | 137° |
| 2026-05-07 09:35 | 42.88156 | 19.71928 | 36328 ft | 446 kts | 137° |
| 2026-05-07 09:36 | 42.86103 | 19.75074 | 36237 ft | 446 kts | 137° |
| 2026-05-07 09:36 | 42.81981 | 19.81378 | 36069 ft | 446 kts | 137° |
| 2026-05-07 09:37 | 42.77862 | 19.87666 | 35887 ft | 446 kts | 137° |
| 2026-05-07 09:37 | 42.73737 | 19.93951 | 35740 ft | 446 kts | 137° |
| 2026-05-07 09:38 | 42.69595 | 20.00237 | 35635 ft | 446 kts | 137° |
| 2026-05-07 09:38 | 42.65450 | 20.06502 | 35590 ft | 446 kts | 137° |
| 2026-05-07 09:39 | 42.61300 | 20.12771 | 35630 ft | 448 kts | 137° |
| 2026-05-07 09:39 | 42.57133 | 20.19055 | 35766 ft | 449 kts | 137° |
| 2026-05-07 09:39 | 42.55052 | 20.22191 | 35986 ft | 446 kts | 137° |
| 2026-05-07 09:40 | 42.52990 | 20.25298 | 36331 ft | 440 kts | 137° |
| 2026-05-07 09:40 | 42.50973 | 20.28334 | 36695 ft | 434 kts | 137° |
| 2026-05-07 09:40 | 42.48971 | 20.31343 | 36984 ft | 431 kts | 137° |
| 2026-05-07 09:40 | 42.46954 | 20.34362 | 37163 ft | 433 kts | 137° |
| 2026-05-07 09:41 | 42.44935 | 20.37380 | 37245 ft | 438 kts | 137° |
| 2026-05-07 09:41 | 42.40813 | 20.43535 | 37267 ft | 447 kts | 136° |
| 2026-05-07 09:42 | 42.36631 | 20.49784 | 37222 ft | 449 kts | 136° |
| 2026-05-07 09:42 | 42.32463 | 20.55999 | 37209 ft | 449 kts | 136° |
| 2026-05-07 09:43 | 42.28257 | 20.62253 | 37187 ft | 449 kts | 136° |
| 2026-05-07 09:43 | 42.24058 | 20.68483 | 37175 ft | 449 kts | 137° |
| 2026-05-07 09:44 | 42.19862 | 20.74697 | 37181 ft | 449 kts | 137° |
| 2026-05-07 09:44 | 42.15659 | 20.80908 | 37198 ft | 449 kts | 137° |
| 2026-05-07 09:45 | 42.11479 | 20.87073 | 37147 ft | 450 kts | 137° |
| 2026-05-07 09:45 | 42.07239 | 20.93314 | 37172 ft | 451 kts | 137° |
| 2026-05-07 09:46 | 42.03021 | 20.99501 | 37192 ft | 451 kts | 137° |
| 2026-05-07 09:46 | 41.98791 | 21.05680 | 37177 ft | 452 kts | 137° |
| 2026-05-07 09:47 | 41.94530 | 21.11900 | 37181 ft | 452 kts | 136° |
| 2026-05-07 09:47 | 41.90284 | 21.18092 | 37191 ft | 453 kts | 136° |
| 2026-05-07 09:48 | 41.86016 | 21.24305 | 37205 ft | 454 kts | 136° |
| 2026-05-07 09:48 | 41.81730 | 21.30528 | 37218 ft | 454 kts | 136° |
| 2026-05-07 09:49 | 41.77443 | 21.36741 | 36987 ft | 455 kts | 136° |
| 2026-05-07 09:49 | 41.75301 | 21.39840 | 36705 ft | 455 kts | 136° |
| 2026-05-07 09:49 | 41.73166 | 21.42925 | 36337 ft | 456 kts | 136° |
| 2026-05-07 09:49 | 41.71010 | 21.46040 | 36078 ft | 456 kts | 136° |
| 2026-05-07 09:50 | 41.68867 | 21.49131 | 35951 ft | 457 kts | 136° |
| 2026-05-07 09:50 | 41.64548 | 21.55351 | 35943 ft | 458 kts | 136° |
| 2026-05-07 09:50 | 41.62369 | 21.58480 | 36047 ft | 458 kts | 136° |
| 2026-05-07 09:51 | 41.60210 | 21.61579 | 36268 ft | 454 kts | 136° |
| 2026-05-07 09:51 | 41.58070 | 21.64650 | 36513 ft | 450 kts | 136° |
| 2026-05-07 09:51 | 41.55970 | 21.67660 | 36764 ft | 447 kts | 137° |
| 2026-05-07 09:51 | 41.53838 | 21.70710 | 36984 ft | 447 kts | 137° |
| 2026-05-07 09:52 | 41.51737 | 21.73711 | 37121 ft | 450 kts | 137° |
| 2026-05-07 09:52 | 41.47408 | 21.79885 | 37229 ft | 457 kts | 137° |
| 2026-05-07 09:53 | 41.43090 | 21.86041 | 37230 ft | 457 kts | 137° |
| 2026-05-07 09:53 | 41.38764 | 21.92198 | 37222 ft | 457 kts | 137° |
| 2026-05-07 09:54 | 41.34433 | 21.98348 | 37185 ft | 457 kts | 137° |
| 2026-05-07 09:54 | 41.30100 | 22.04489 | 37173 ft | 457 kts | 137° |
| 2026-05-07 09:55 | 41.25740 | 22.10652 | 37096 ft | 458 kts | 136° |
| 2026-05-07 09:55 | 41.22886 | 22.14684 | 37002 ft | 459 kts | 136° |
| 2026-05-07 09:55 | 41.21482 | 22.16692 | 36351 ft | 454 kts | 139° |
| 2026-05-07 09:56 | 41.19365 | 22.19686 | 36757 ft | 448 kts | 139° |
| 2026-05-07 09:56 | 41.17187 | 22.22641 | 36938 ft | 446 kts | 142° |
| 2026-05-07 09:56 | 41.14909 | 22.25412 | 36999 ft | 446 kts | 145° |
| 2026-05-07 09:57 | 41.10104 | 22.30605 | 37059 ft | 448 kts | 146° |
| 2026-05-07 09:57 | 41.05248 | 22.35798 | 37100 ft | 452 kts | 144° |
| 2026-05-07 09:58 | 41.00338 | 22.41066 | 37142 ft | 457 kts | 144° |
| 2026-05-07 09:58 | 40.95432 | 22.46329 | 37145 ft | 457 kts | 144° |
| 2026-05-07 09:59 | 40.90456 | 22.51653 | 37136 ft | 459 kts | 144° |
| 2026-05-07 09:59 | 40.85496 | 22.56948 | 37135 ft | 459 kts | 144° |
| 2026-05-07 10:00 | 40.80541 | 22.62223 | 37134 ft | 460 kts | 144° |
| 2026-05-07 10:00 | 40.75588 | 22.67488 | 37138 ft | 459 kts | 145° |
| 2026-05-07 10:01 | 40.70601 | 22.72778 | 36952 ft | 460 kts | 145° |
| 2026-05-07 10:01 | 40.68124 | 22.75406 | 36651 ft | 458 kts | 145° |
| 2026-05-07 10:01 | 40.65663 | 22.78012 | 36382 ft | 454 kts | 145° |
| 2026-05-07 10:01 | 40.63206 | 22.80610 | 36149 ft | 451 kts | 145° |
| 2026-05-07 10:02 | 40.60779 | 22.83179 | 35915 ft | 448 kts | 145° |
| 2026-05-07 10:02 | 40.58367 | 22.85725 | 35683 ft | 448 kts | 145° |
| 2026-05-07 10:02 | 40.55950 | 22.88274 | 35451 ft | 447 kts | 145° |
| 2026-05-07 10:02 | 40.53507 | 22.90849 | 35216 ft | 448 kts | 145° |
| 2026-05-07 10:03 | 40.51086 | 22.93396 | 34982 ft | 447 kts | 145° |
| 2026-05-07 10:03 | 40.48665 | 22.95939 | 34747 ft | 447 kts | 146° |
| 2026-05-07 10:03 | 40.46205 | 22.98404 | 34512 ft | 445 kts | 149° |
| 2026-05-07 10:03 | 40.43659 | 23.00670 | 34233 ft | 442 kts | 152° |
| 2026-05-07 10:04 | 40.41028 | 23.02784 | 33947 ft | 442 kts | 153° |
| 2026-05-07 10:04 | 40.38401 | 23.04868 | 33500 ft | 442 kts | 153° |
| 2026-05-07 10:04 | 40.35792 | 23.06938 | 32843 ft | 441 kts | 152° |
| 2026-05-07 10:04 | 40.33189 | 23.09006 | 32426 ft | 435 kts | 152° |
| 2026-05-07 10:05 | 40.30614 | 23.11054 | 32103 ft | 434 kts | 152° |
| 2026-05-07 10:05 | 40.28036 | 23.13104 | 31602 ft | 432 kts | 152° |
| 2026-05-07 10:05 | 40.25495 | 23.15119 | 31116 ft | 427 kts | 152° |
| 2026-05-07 10:05 | 40.22952 | 23.17136 | 30648 ft | 422 kts | 151° |
| 2026-05-07 10:06 | 40.20456 | 23.19115 | 30179 ft | 418 kts | 151° |
| 2026-05-07 10:06 | 40.17991 | 23.21071 | 29701 ft | 414 kts | 151° |
| 2026-05-07 10:06 | 40.15538 | 23.23012 | 29235 ft | 411 kts | 151° |
| 2026-05-07 10:06 | 40.13110 | 23.24935 | 28757 ft | 408 kts | 151° |
| 2026-05-07 10:07 | 40.10712 | 23.26832 | 28299 ft | 404 kts | 151° |
| 2026-05-07 10:07 | 40.08310 | 23.28730 | 27840 ft | 400 kts | 151° |
| 2026-05-07 10:07 | 40.05937 | 23.30600 | 27396 ft | 397 kts | 151° |
| 2026-05-07 10:07 | 40.03598 | 23.32445 | 26951 ft | 393 kts | 151° |
| 2026-05-07 10:08 | 40.01272 | 23.34277 | 26499 ft | 390 kts | 151° |
| 2026-05-07 10:08 | 39.98962 | 23.36095 | 26047 ft | 387 kts | 151° |
| 2026-05-07 10:08 | 39.96658 | 23.37907 | 25595 ft | 384 kts | 151° |
| 2026-05-07 10:08 | 39.94400 | 23.39680 | 25155 ft | 382 kts | 151° |
| 2026-05-07 10:09 | 39.92138 | 23.41455 | 24716 ft | 379 kts | 151° |
| 2026-05-07 10:09 | 39.89874 | 23.43230 | 24277 ft | 377 kts | 151° |
| 2026-05-07 10:09 | 39.87651 | 23.44973 | 23842 ft | 375 kts | 151° |
| 2026-05-07 10:09 | 39.85430 | 23.46712 | 23406 ft | 373 kts | 150° |
| 2026-05-07 10:10 | 39.83205 | 23.48455 | 22976 ft | 371 kts | 151° |
| 2026-05-07 10:10 | 39.81011 | 23.50172 | 22555 ft | 369 kts | 151° |
| 2026-05-07 10:10 | 39.78827 | 23.51880 | 22139 ft | 367 kts | 151° |
| 2026-05-07 10:10 | 39.76625 | 23.53598 | 21712 ft | 366 kts | 151° |
| 2026-05-07 10:11 | 39.74471 | 23.55280 | 21285 ft | 364 kts | 151° |
| 2026-05-07 10:11 | 39.72287 | 23.56983 | 20856 ft | 363 kts | 151° |
| 2026-05-07 10:11 | 39.70135 | 23.58659 | 20432 ft | 361 kts | 151° |
| 2026-05-07 10:11 | 39.67993 | 23.60329 | 20009 ft | 360 kts | 151° |
| 2026-05-07 10:12 | 39.65841 | 23.62002 | 19585 ft | 359 kts | 151° |
| 2026-05-07 10:12 | 39.63725 | 23.63647 | 19168 ft | 357 kts | 151° |
| 2026-05-07 10:12 | 39.61579 | 23.65312 | 18744 ft | 356 kts | 152° |
| 2026-05-07 10:12 | 39.59473 | 23.66949 | 18320 ft | 354 kts | 152° |
| 2026-05-07 10:13 | 39.57382 | 23.68572 | 17902 ft | 353 kts | 152° |
| 2026-05-07 10:13 | 39.55259 | 23.70217 | 17479 ft | 352 kts | 152° |
| 2026-05-07 10:13 | 39.53179 | 23.71827 | 17061 ft | 351 kts | 152° |
| 2026-05-07 10:13 | 39.51081 | 23.73450 | 16637 ft | 350 kts | 152° |
| 2026-05-07 10:14 | 39.49008 | 23.75054 | 16218 ft | 348 kts | 152° |
| 2026-05-07 10:14 | 39.46949 | 23.76645 | 15799 ft | 347 kts | 152° |
| 2026-05-07 10:14 | 39.44869 | 23.78252 | 15378 ft | 346 kts | 152° |
| 2026-05-07 10:14 | 39.42815 | 23.79837 | 14968 ft | 344 kts | 152° |
| 2026-05-07 10:15 | 39.40756 | 23.81428 | 14546 ft | 343 kts | 152° |
| 2026-05-07 10:15 | 39.38731 | 23.82988 | 14148 ft | 341 kts | 152° |
| 2026-05-07 10:15 | 39.36681 | 23.84568 | 13741 ft | 339 kts | 151° |
| 2026-05-07 10:15 | 39.34665 | 23.86118 | 13326 ft | 338 kts | 151° |
| 2026-05-07 10:16 | 39.32642 | 23.87675 | 12901 ft | 336 kts | 151° |
| 2026-05-07 10:16 | 39.30642 | 23.89216 | 12490 ft | 334 kts | 151° |
| 2026-05-07 10:16 | 39.28655 | 23.90743 | 12076 ft | 332 kts | 150° |
| 2026-05-07 10:16 | 39.26685 | 23.92256 | 11653 ft | 330 kts | 150° |
| 2026-05-07 10:17 | 39.24720 | 23.93764 | 11247 ft | 328 kts | 150° |
| 2026-05-07 10:17 | 39.22748 | 23.95261 | 10813 ft | 325 kts | 153° |
| 2026-05-07 10:17 | 39.20617 | 23.96101 | 10354 ft | 320 kts | 180° |
| 2026-05-07 10:17 | 39.18545 | 23.95505 | 10165 ft | 303 kts | 211° |
| 2026-05-07 10:18 | 39.17042 | 23.93736 | 9997 ft | 287 kts | 238° |
| 2026-05-07 10:18 | 39.16318 | 23.91379 | 9611 ft | 282 kts | 263° |
| 2026-05-07 10:18 | 39.16348 | 23.88895 | 9259 ft | 279 kts | 276° |
| 2026-05-07 10:18 | 39.16555 | 23.86424 | 8890 ft | 277 kts | 276° |
| 2026-05-07 10:19 | 39.16746 | 23.83974 | 8525 ft | 275 kts | 275° |
| 2026-05-07 10:19 | 39.16914 | 23.81540 | 8172 ft | 273 kts | 275° |
| 2026-05-07 10:19 | 39.17069 | 23.79122 | 7828 ft | 271 kts | 274° |
| 2026-05-07 10:19 | 39.17216 | 23.76685 | 7475 ft | 270 kts | 274° |
| 2026-05-07 10:20 | 39.17354 | 23.74316 | 7120 ft | 268 kts | 274° |
| 2026-05-07 10:20 | 39.17492 | 23.71933 | 6764 ft | 267 kts | 274° |
| 2026-05-07 10:20 | 39.17630 | 23.69557 | 6428 ft | 265 kts | 274° |
| 2026-05-07 10:20 | 39.17766 | 23.67199 | 6104 ft | 263 kts | 274° |
| 2026-05-07 10:21 | 39.17898 | 23.64856 | 5760 ft | 261 kts | 273° |
| 2026-05-07 10:21 | 39.17709 | 23.62561 | 5390 ft | 260 kts | 248° |
| 2026-05-07 10:21 | 39.16662 | 23.60686 | 5032 ft | 260 kts | 219° |
| 2026-05-07 10:21 | 39.15101 | 23.59529 | 4699 ft | 260 kts | 207° |
| 2026-05-07 10:22 | 39.13466 | 23.58507 | 4360 ft | 259 kts | 207° |
| 2026-05-07 10:22 | 39.11851 | 23.57482 | 4020 ft | 259 kts | 207° |
| 2026-05-07 10:22 | 39.10248 | 23.56452 | 3685 ft | 258 kts | 207° |
| 2026-05-07 10:22 | 39.08654 | 23.55418 | 3377 ft | 255 kts | 206° |
| 2026-05-07 10:23 | 39.07113 | 23.54416 | 3332 ft | 242 kts | 206° |
| 2026-05-07 10:23 | 39.05635 | 23.53456 | 3195 ft | 234 kts | 206° |
| 2026-05-07 10:23 | 39.04205 | 23.52524 | 2945 ft | 231 kts | 206° |
| 2026-05-07 10:23 | 39.02780 | 23.51545 | 2693 ft | 228 kts | 215° |
| 2026-05-07 10:24 | 39.01844 | 23.49967 | 2424 ft | 227 kts | 256° |
| 2026-05-07 10:24 | 39.01940 | 23.48006 | 2169 ft | 222 kts | 297° |
| 2026-05-07 10:24 | 39.02992 | 23.46665 | 1907 ft | 212 kts | 340° |
| 2026-05-07 10:24 | 39.04388 | 23.46492 | 1680 ft | 199 kts | 7° |
| 2026-05-07 10:25 | 39.05725 | 23.46801 | 1610 ft | 192 kts | 12° |
| 2026-05-07 10:25 | 39.07006 | 23.47181 | 1682 ft | 180 kts | 14° |
| 2026-05-07 10:25 | 39.08144 | 23.47522 | 1619 ft | 157 kts | 14° |
| 2026-05-07 10:25 | 39.09145 | 23.47838 | 1480 ft | 137 kts | 15° |
| 2026-05-07 10:26 | 39.10064 | 23.48115 | 1370 ft | 134 kts | 9° |
| 2026-05-07 10:26 | 39.10990 | 23.48240 | 1280 ft | 133 kts | 3° |
| 2026-05-07 10:26 | 39.11912 | 23.48284 | 1214 ft | 133 kts | 2° |
| 2026-05-07 10:26 | 39.12859 | 23.48362 | 1114 ft | 138 kts | 7° |
| 2026-05-07 10:27 | 39.13803 | 23.48626 | 886 ft | 141 kts | 17° |
| 2026-05-07 10:27 | 39.14734 | 23.49042 | 532 ft | 143 kts | 21° |
| 2026-05-07 10:27 | 39.15656 | 23.49439 | 352 ft | 138 kts | 18° |
| 2026-05-07 10:27 | 39.16563 | 23.49852 | 151 ft | 136 kts | 20° |
| 2026-05-07 10:28 | 39.17444 | 23.50245 | 38 ft | 124 kts | 19° |
| 2026-05-07 10:28 | 39.18005 | 23.50494 | 67 ft | 43 kts | 19° |
| 2026-05-07 10:28 | 39.18189 | 23.50576 | 70 ft | 26 kts | 20° |
| 2026-05-07 10:28 | 39.18346 | 23.50643 | 68 ft | 15 kts | 15° |
| 2026-05-07 10:29 | 39.18417 | 23.50657 | 67 ft | 7 kts | 59° |
| 2026-05-07 10:29 | 39.18375 | 23.50661 | 67 ft | 9 kts | 205° |
| 2026-05-07 10:29 | 39.18282 | 23.50614 | 69 ft | 18 kts | 199° |
| 2026-05-07 10:30 | 39.18026 | 23.50502 | 68 ft | 19 kts | 200° |
| 2026-05-07 10:30 | 39.17948 | 23.50441 | 67 ft | 13 kts | 240° |
| 2026-05-07 10:30 | 39.17914 | 23.50356 | 65 ft | 8 kts | 234° |
| 2026-05-07 10:30 | 39.17867 | 23.50315 | 62 ft | 6 kts | 206° |
| 2026-05-07 10:31 | 39.17863 | 23.50285 | 62 ft | 4 kts | 272° |
| 2026-05-07 10:31 | 39.17873 | 23.50238 | 62 ft | 5 kts | 288° |
| 2026-05-07 10:31 | 39.17878 | 23.50220 | 63 ft | 0 kts | 287° |